sensor_id;sensor_type;location;lat;lon;timestamp;pressure;altitude;pressure_sealevel;temperature;humidity
22647;BME280;11490;42.726;23.268;2022-11-15T00:00:03;95839.94;;;3.93;90.61
22647;BME280;11490;42.726;23.268;2022-11-15T00:02:28;95841.94;;;3.91;90.54
22647;BME280;11490;42.726;23.268;2022-11-15T00:04:54;95843.19;;;3.95;90.60
22647;BME280;11490;42.726;23.268;2022-11-15T00:07:19;95842.94;;;3.90;90.45
22647;BME280;11490;42.726;23.268;2022-11-15T00:09:45;95829.69;;;3.61;91.40
22647;BME280;11490;42.726;23.268;2022-11-15T00:12:10;95827.72;;;3.63;93.02
22647;BME280;11490;42.726;23.268;2022-11-15T00:14:35;95823.69;;;3.67;93.15
22647;BME280;11490;42.726;23.268;2022-11-15T00:17:01;95825.84;;;3.48;95.50
22647;BME280;11490;42.726;23.268;2022-11-15T00:19:26;95819.59;;;3.64;94.76
22647;BME280;11490;42.726;23.268;2022-11-15T00:21:51;95818.06;;;3.70;94.24
22647;BME280;11490;42.726;23.268;2022-11-15T00:24:17;95819.44;;;3.80;93.34
22647;BME280;11490;42.726;23.268;2022-11-15T00:26:42;95822.44;;;3.63;92.34
22647;BME280;11490;42.726;23.268;2022-11-15T00:29:07;95816.25;;;3.56;94.89
22647;BME280;11490;42.726;23.268;2022-11-15T00:31:33;95807.44;;;3.63;93.65
22647;BME280;11490;42.726;23.268;2022-11-15T00:33:58;95816.78;;;3.66;93.67
22647;BME280;11490;42.726;23.268;2022-11-15T00:36:24;95820.06;;;3.68;93.12
22647;BME280;11490;42.726;23.268;2022-11-15T00:38:49;95809.16;;;3.71;92.57
22647;BME280;11490;42.726;23.268;2022-11-15T00:41:14;95826.59;;;3.72;91.66
22647;BME280;11490;42.726;23.268;2022-11-15T00:43:40;95830.47;;;3.84;91.07
22647;BME280;11490;42.726;23.268;2022-11-15T00:46:08;95823.34;;;3.70;90.69
22647;BME280;11490;42.726;23.268;2022-11-15T00:48:35;95820.06;;;3.68;90.87
22647;BME280;11490;42.726;23.268;2022-11-15T00:51:00;95815.97;;;3.65;91.22
22647;BME280;11490;42.726;23.268;2022-11-15T00:53:26;95815.88;;;3.59;91.32
22647;BME280;11490;42.726;23.268;2022-11-15T00:55:51;95820.06;;;3.68;91.29
22647;BME280;11490;42.726;23.268;2022-11-15T00:58:16;95814.38;;;3.41;92.26
22647;BME280;11490;42.726;23.268;2022-11-15T01:00:42;95808.13;;;3.57;91.92
22647;BME280;11490;42.726;23.268;2022-11-15T01:03:07;95821.13;;;3.59;91.34
22647;BME280;11490;42.726;23.268;2022-11-15T01:05:33;95803.88;;;3.56;92.05
22647;BME280;11490;42.726;23.268;2022-11-15T01:07:58;95800.84;;;3.59;91.19
22647;BME280;11490;42.726;23.268;2022-11-15T01:10:23;95804.41;;;3.52;90.97
22647;BME280;11490;42.726;23.268;2022-11-15T01:12:50;95797.47;;;3.51;91.71
22647;BME280;11490;42.726;23.268;2022-11-15T01:15:16;95799.78;;;3.54;90.80
22647;BME280;11490;42.726;23.268;2022-11-15T01:17:41;95796.66;;;3.50;90.48
22647;BME280;11490;42.726;23.268;2022-11-15T01:20:07;95815.09;;;3.35;91.06
22647;BME280;11490;42.726;23.268;2022-11-15T01:22:33;95804.09;;;3.32;92.73
22647;BME280;11490;42.726;23.268;2022-11-15T01:24:58;95792.00;;;3.37;92.17
22647;BME280;11490;42.726;23.268;2022-11-15T01:27:24;95801.25;;;3.56;91.28
22647;BME280;11490;42.726;23.268;2022-11-15T01:29:49;95794.84;;;3.51;90.97
22647;BME280;11490;42.726;23.268;2022-11-15T01:32:15;95810.97;;;3.56;90.63
22647;BME280;11490;42.726;23.268;2022-11-15T01:34:40;95805.69;;;3.56;90.81
22647;BME280;11490;42.726;23.268;2022-11-15T01:37:06;95798.69;;;3.48;90.94
22647;BME280;11490;42.726;23.268;2022-11-15T01:39:31;95806.84;;;3.53;91.29
22647;BME280;11490;42.726;23.268;2022-11-15T01:41:56;95797.13;;;3.54;92.57
22647;BME280;11490;42.726;23.268;2022-11-15T01:47:03;95797.28;;;3.37;93.69
22647;BME280;11490;42.726;23.268;2022-11-15T01:49:32;95798.19;;;3.44;93.33
22647;BME280;11490;42.726;23.268;2022-11-15T01:52:00;95793.03;;;3.51;92.07
22647;BME280;11490;42.726;23.268;2022-11-15T01:54:26;95785.66;;;3.46;91.12
22647;BME280;11490;42.726;23.268;2022-11-15T01:56:59;95790.38;;;3.36;92.31
22647;BME280;11490;42.726;23.268;2022-11-15T01:59:26;95786.75;;;3.37;92.41
22647;BME280;11490;42.726;23.268;2022-11-15T02:01:51;95794.50;;;3.54;91.48
22647;BME280;11490;42.726;23.268;2022-11-15T02:04:21;95792.19;;;3.51;90.47
22647;BME280;11490;42.726;23.268;2022-11-15T02:06:49;95783.09;;;3.38;91.18
22647;BME280;11490;42.726;23.268;2022-11-15T02:09:14;95795.28;;;3.39;90.92
22647;BME280;11490;42.726;23.268;2022-11-15T02:11:40;95776.19;;;3.37;90.47
22647;BME280;11490;42.726;23.268;2022-11-15T02:14:06;95785.19;;;3.43;90.05
22647;BME280;11490;42.726;23.268;2022-11-15T02:16:40;95794.13;;;3.19;92.14
22647;BME280;11490;42.726;23.268;2022-11-15T02:33:02;95778.75;;;3.08;98.20
22647;BME280;11490;42.726;23.268;2022-11-15T02:35:56;95787.94;;;3.12;96.00
22647;BME280;11490;42.726;23.268;2022-11-15T02:41:47;95779.03;;;3.13;92.94
22647;BME280;11490;42.726;23.268;2022-11-15T02:44:23;95783.84;;;3.09;93.44
22647;BME280;11490;42.726;23.268;2022-11-15T02:46:54;95781.69;;;3.13;93.60
22647;BME280;11490;42.726;23.268;2022-11-15T02:49:49;95788.44;;;2.93;94.56
22647;BME280;11490;42.726;23.268;2022-11-15T02:52:20;95780.63;;;2.77;95.86
22647;BME280;11490;42.726;23.268;2022-11-15T02:54:57;95784.53;;;3.03;95.37
22647;BME280;11490;42.726;23.268;2022-11-15T02:57:39;95784.88;;;3.23;94.41
22647;BME280;11490;42.726;23.268;2022-11-15T03:00:17;95748.53;;;2.96;93.20
22647;BME280;11490;42.726;23.268;2022-11-15T03:03:09;95797.06;;;3.24;92.64
22647;BME280;11490;42.726;23.268;2022-11-15T03:16:15;95786.13;;;3.65;94.48
22647;BME280;11490;42.726;23.268;2022-11-15T03:18:45;95775.06;;;3.69;94.53
22647;BME280;11490;42.726;23.268;2022-11-15T03:21:13;95769.88;;;3.76;94.52
22647;BME280;11490;42.726;23.268;2022-11-15T03:23:41;95764.59;;;3.76;93.68
22647;BME280;11490;42.726;23.268;2022-11-15T03:26:12;95765.16;;;3.86;93.65
22647;BME280;11490;42.726;23.268;2022-11-15T03:28:55;95771.59;;;3.83;93.15
22647;BME280;11490;42.726;23.268;2022-11-15T03:31:24;95772.06;;;3.87;94.19
22647;BME280;11490;42.726;23.268;2022-11-15T03:34:19;95777.44;;;3.94;93.62
22647;BME280;11490;42.726;23.268;2022-11-15T03:36:47;95770.59;;;3.99;93.35
22647;BME280;11490;42.726;23.268;2022-11-15T03:39:13;95745.28;;;3.90;92.86
22647;BME280;11490;42.726;23.268;2022-11-15T03:42:23;95766.13;;;4.00;93.25
22647;BME280;11490;42.726;23.268;2022-11-15T03:50:12;95757.84;;;4.17;93.21
22647;BME280;11490;42.726;23.268;2022-11-15T03:52:39;95756.63;;;4.20;93.33
22647;BME280;11490;42.726;23.268;2022-11-15T03:55:08;95760.38;;;4.25;93.62
22647;BME280;11490;42.726;23.268;2022-11-15T03:57:35;95754.72;;;4.29;93.11
22647;BME280;11490;42.726;23.268;2022-11-15T04:00:00;95752.31;;;4.34;92.86
22647;BME280;11490;42.726;23.268;2022-11-15T04:02:26;95744.22;;;4.35;92.64
22647;BME280;11490;42.726;23.268;2022-11-15T04:04:51;95748.78;;;4.41;92.54
22647;BME280;11490;42.726;23.268;2022-11-15T04:07:16;95753.66;;;4.44;92.54
22647;BME280;11490;42.726;23.268;2022-11-15T04:09:42;95750.66;;;4.47;92.65
22647;BME280;11490;42.726;23.268;2022-11-15T04:12:26;95739.31;;;4.32;92.58
22647;BME280;11490;42.726;23.268;2022-11-15T04:15:02;95743.09;;;4.08;93.95
22647;BME280;11490;42.726;23.268;2022-11-15T04:17:35;95747.28;;;4.17;93.98
22647;BME280;11490;42.726;23.268;2022-11-15T04:20:02;95739.63;;;4.22;93.42
22647;BME280;11490;42.726;23.268;2022-11-15T04:22:46;95742.25;;;4.22;93.43
22647;BME280;11490;42.726;23.268;2022-11-15T04:25:30;95743.25;;;4.21;93.78
22647;BME280;11490;42.726;23.268;2022-11-15T04:27:55;95732.34;;;4.24;94.37
22647;BME280;11490;42.726;23.268;2022-11-15T04:30:20;95729.06;;;4.22;95.39
22647;BME280;11490;42.726;23.268;2022-11-15T04:32:46;95739.78;;;4.21;95.69
22647;BME280;11490;42.726;23.268;2022-11-15T04:35:11;95729.19;;;4.00;95.92
22647;BME280;11490;42.726;23.268;2022-11-15T04:37:37;95728.00;;;4.02;97.49
22647;BME280;11490;42.726;23.268;2022-11-15T04:40:02;95734.53;;;4.06;98.44
22647;BME280;11490;42.726;23.268;2022-11-15T04:42:27;95738.72;;;4.15;98.52
22647;BME280;11490;42.726;23.268;2022-11-15T04:44:53;95742.44;;;4.21;98.03
22647;BME280;11490;42.726;23.268;2022-11-15T04:47:18;95723.25;;;4.12;97.68
22647;BME280;11490;42.726;23.268;2022-11-15T04:49:43;95748.59;;;4.28;97.84
22647;BME280;11490;42.726;23.268;2022-11-15T04:52:09;95740.25;;;4.24;98.41
22647;BME280;11490;42.726;23.268;2022-11-15T04:54:34;95742.41;;;4.36;98.18
22647;BME280;11490;42.726;23.268;2022-11-15T04:57:00;95743.41;;;4.35;97.70
22647;BME280;11490;42.726;23.268;2022-11-15T04:59:25;95751.22;;;4.43;97.23
22647;BME280;11490;42.726;23.268;2022-11-15T05:01:51;95741.03;;;4.40;96.88
22647;BME280;11490;42.726;23.268;2022-11-15T05:04:16;95749.56;;;4.42;96.24
22647;BME280;11490;42.726;23.268;2022-11-15T05:06:48;95755.78;;;4.49;95.78
22647;BME280;11490;42.726;23.268;2022-11-15T05:09:14;95755.78;;;4.49;95.58
22647;BME280;11490;42.726;23.268;2022-11-15T05:11:40;95758.41;;;4.49;95.54
22647;BME280;11490;42.726;23.268;2022-11-15T05:14:06;95754.13;;;4.48;95.50
22647;BME280;11490;42.726;23.268;2022-11-15T05:16:31;95750.84;;;4.46;96.06
22647;BME280;11490;42.726;23.268;2022-11-15T05:18:57;95731.38;;;4.47;96.15
22647;BME280;11490;42.726;23.268;2022-11-15T05:21:22;95741.53;;;4.50;96.33
22647;BME280;11490;42.726;23.268;2022-11-15T05:23:47;95742.16;;;4.52;96.55
22647;BME280;11490;42.726;23.268;2022-11-15T05:26:15;95748.53;;;4.57;96.67
22647;BME280;11490;42.726;23.268;2022-11-15T05:28:41;95739.16;;;4.55;96.64
22647;BME280;11490;42.726;23.268;2022-11-15T05:31:11;95732.72;;;4.43;97.76
22647;BME280;11490;42.726;23.268;2022-11-15T05:33:41;95721.56;;;4.41;97.75
22647;BME280;11490;42.726;23.268;2022-11-15T05:38:35;95739.53;;;4.52;98.16
22647;BME280;11490;42.726;23.268;2022-11-15T05:41:01;95731.38;;;4.47;98.45
22647;BME280;11490;42.726;23.268;2022-11-15T05:43:28;95735.53;;;4.56;98.60
22647;BME280;11490;42.726;23.268;2022-11-15T05:45:56;95740.28;;;4.46;98.45
22647;BME280;11490;42.726;23.268;2022-11-15T05:48:23;95745.81;;;4.51;98.84
22647;BME280;11490;42.726;23.268;2022-11-15T05:50:48;95743.63;;;4.54;98.40
22647;BME280;11490;42.726;23.268;2022-11-15T05:53:16;95739.72;;;4.50;98.11
22647;BME280;11490;42.726;23.268;2022-11-15T05:55:44;95738.91;;;4.50;97.99
22647;BME280;11490;42.726;23.268;2022-11-15T05:58:10;95743.19;;;4.51;97.75
22647;BME280;11490;42.726;23.268;2022-11-15T06:00:36;95757.16;;;4.66;97.97
22647;BME280;11490;42.726;23.268;2022-11-15T06:03:01;95740.00;;;4.55;97.86
22647;BME280;11490;42.726;23.268;2022-11-15T06:05:27;95745.34;;;4.62;98.21
22647;BME280;11490;42.726;23.268;2022-11-15T06:07:52;95767.00;;;4.72;98.11
22647;BME280;11490;42.726;23.268;2022-11-15T06:10:18;95757.44;;;4.71;98.72
22647;BME280;11490;42.726;23.268;2022-11-15T06:12:43;95745.47;;;4.75;98.50
22647;BME280;11490;42.726;23.268;2022-11-15T06:15:08;95752.38;;;4.76;98.55
22647;BME280;11490;42.726;23.268;2022-11-15T06:17:34;95751.16;;;4.72;98.76
22647;BME280;11490;42.726;23.268;2022-11-15T06:19:59;95747.47;;;4.73;99.01
22647;BME280;11490;42.726;23.268;2022-11-15T06:22:25;95743.81;;;4.74;98.81
22647;BME280;11490;42.726;23.268;2022-11-15T06:24:50;95740.63;;;4.79;99.33
22647;BME280;11490;42.726;23.268;2022-11-15T06:27:15;95738.22;;;4.84;99.21
22647;BME280;11490;42.726;23.268;2022-11-15T06:29:41;95747.22;;;4.89;99.45
22647;BME280;11490;42.726;23.268;2022-11-15T06:32:06;95742.81;;;4.96;99.50
22647;BME280;11490;42.726;23.268;2022-11-15T06:34:32;95736.66;;;4.89;99.55
22647;BME280;11490;42.726;23.268;2022-11-15T06:36:57;95733.69;;;4.99;100.00
22647;BME280;11490;42.726;23.268;2022-11-15T06:39:23;95753.25;;;5.04;100.00
22647;BME280;11490;42.726;23.268;2022-11-15T06:41:48;95745.31;;;5.04;100.00
22647;BME280;11490;42.726;23.268;2022-11-15T06:44:13;95752.00;;;5.00;100.00
22647;BME280;11490;42.726;23.268;2022-11-15T06:46:39;95750.38;;;4.99;100.00
22647;BME280;11490;42.726;23.268;2022-11-15T06:49:04;95747.22;;;4.89;100.00
22647;BME280;11490;42.726;23.268;2022-11-15T06:51:29;95740.81;;;4.98;100.00
22647;BME280;11490;42.726;23.268;2022-11-15T06:53:55;95729.41;;;4.98;100.00
22647;BME280;11490;42.726;23.268;2022-11-15T06:56:20;95735.16;;;5.01;100.00
22647;BME280;11490;42.726;23.268;2022-11-15T06:58:46;95743.69;;;5.03;100.00
22647;BME280;11490;42.726;23.268;2022-11-15T07:01:12;95740.03;;;5.04;100.00
22647;BME280;11490;42.726;23.268;2022-11-15T07:03:40;95738.13;;;5.20;100.00
22647;BME280;11490;42.726;23.268;2022-11-15T07:06:06;95734.13;;;5.24;100.00
22647;BME280;11490;42.726;23.268;2022-11-15T07:08:32;95735.22;;;4.87;100.00
22647;BME280;11490;42.726;23.268;2022-11-15T07:10:59;95734.78;;;4.83;100.00
22647;BME280;11490;42.726;23.268;2022-11-15T07:13:26;95740.16;;;4.96;100.00
22647;BME280;11490;42.726;23.268;2022-11-15T07:15:52;95742.81;;;4.96;100.00
22647;BME280;11490;42.726;23.268;2022-11-15T07:18:17;95726.69;;;5.13;100.00
22647;BME280;11490;42.726;23.268;2022-11-15T07:20:43;95725.94;;;5.19;100.00
22647;BME280;11490;42.726;23.268;2022-11-15T07:23:08;95732.09;;;5.26;100.00
22647;BME280;11490;42.726;23.268;2022-11-15T07:25:34;95736.03;;;5.36;100.00
22647;BME280;11490;42.726;23.268;2022-11-15T07:28:00;95697.88;;;5.18;100.00
22647;BME280;11490;42.726;23.268;2022-11-15T07:30:26;95752.25;;;5.55;100.00
22647;BME280;11490;42.726;23.268;2022-11-15T07:32:55;95749.41;;;5.56;100.00
22647;BME280;11490;42.726;23.268;2022-11-15T07:35:20;95733.53;;;5.56;100.00
22647;BME280;11490;42.726;23.268;2022-11-15T07:38:00;95741.47;;;5.56;100.00
22647;BME280;11490;42.726;23.268;2022-11-15T07:40:27;95727.50;;;5.69;100.00
22647;BME280;11490;42.726;23.268;2022-11-15T07:43:04;95713.22;;;5.63;100.00
22647;BME280;11490;42.726;23.268;2022-11-15T07:45:31;95701.00;;;5.62;100.00
22647;BME280;11490;42.726;23.268;2022-11-15T07:47:59;95701.00;;;5.62;100.00
22647;BME280;11490;42.726;23.268;2022-11-15T07:50:25;95749.69;;;5.96;100.00
22647;BME280;11490;42.726;23.268;2022-11-15T07:52:58;95720.09;;;5.58;100.00
22647;BME280;11490;42.726;23.268;2022-11-15T07:55:27;95711.19;;;5.65;100.00
22647;BME280;11490;42.726;23.268;2022-11-15T07:58:06;95735.38;;;5.90;100.00
22647;BME280;11490;42.726;23.268;2022-11-15T08:00:33;95697.38;;;5.70;100.00
22647;BME280;11490;42.726;23.268;2022-11-15T08:03:09;95731.75;;;5.98;100.00
22647;BME280;11490;42.726;23.268;2022-11-15T08:05:38;95739.16;;;6.09;100.00
22647;BME280;11490;42.726;23.268;2022-11-15T08:08:04;95686.03;;;5.82;100.00
22647;BME280;11490;42.726;23.268;2022-11-15T08:10:30;95717.78;;;5.76;100.00
22647;BME280;11490;42.726;23.268;2022-11-15T08:12:57;95727.75;;;5.46;100.00
22647;BME280;11490;42.726;23.268;2022-11-15T08:15:23;95732.81;;;5.41;100.00
22647;BME280;11490;42.726;23.268;2022-11-15T08:18:00;95721.16;;;5.63;100.00
22647;BME280;11490;42.726;23.268;2022-11-15T08:20:27;95718.69;;;5.90;100.00
22647;BME280;11490;42.726;23.268;2022-11-15T08:22:55;95721.59;;;5.95;100.00
22647;BME280;11490;42.726;23.268;2022-11-15T08:25:21;95718.91;;;5.88;100.00
22647;BME280;11490;42.726;23.268;2022-11-15T08:27:47;95708.00;;;5.76;100.00
22647;BME280;11490;42.726;23.268;2022-11-15T08:30:16;95709.34;;;5.94;100.00
22647;BME280;11490;42.726;23.268;2022-11-15T08:32:41;95702.47;;;6.06;100.00
22647;BME280;11490;42.726;23.268;2022-11-15T08:35:07;95702.94;;;6.16;100.00
22647;BME280;11490;42.726;23.268;2022-11-15T08:37:32;95710.91;;;6.29;100.00
22647;BME280;11490;42.726;23.268;2022-11-15T08:39:59;95695.66;;;6.31;100.00
22647;BME280;11490;42.726;23.268;2022-11-15T08:42:24;95685.44;;;6.28;100.00
22647;BME280;11490;42.726;23.268;2022-11-15T08:44:50;95699.75;;;6.40;100.00
22647;BME280;11490;42.726;23.268;2022-11-15T08:47:15;95675.69;;;6.35;100.00
22647;BME280;11490;42.726;23.268;2022-11-15T08:49:40;95679.75;;;6.31;100.00
22647;BME280;11490;42.726;23.268;2022-11-15T08:52:06;95680.13;;;6.28;100.00
22647;BME280;11490;42.726;23.268;2022-11-15T08:54:31;95652.22;;;6.19;100.00
22647;BME280;11490;42.726;23.268;2022-11-15T08:56:57;95672.34;;;6.13;100.00
22647;BME280;11490;42.726;23.268;2022-11-15T08:59:22;95693.50;;;6.07;100.00
22647;BME280;11490;42.726;23.268;2022-11-15T09:01:47;95642.69;;;5.84;100.00
22647;BME280;11490;42.726;23.268;2022-11-15T09:04:13;95616.03;;;5.44;100.00
22647;BME280;11490;42.726;23.268;2022-11-15T09:06:38;95651.44;;;5.84;100.00
22647;BME280;11490;42.726;23.268;2022-11-15T09:09:04;95650.25;;;5.87;100.00
22647;BME280;11490;42.726;23.268;2022-11-15T09:11:29;95611.84;;;5.56;100.00
22647;BME280;11490;42.726;23.268;2022-11-15T09:13:55;95666.66;;;6.16;100.00
22647;BME280;11490;42.726;23.268;2022-11-15T09:16:20;95651.78;;;5.74;100.00
22647;BME280;11490;42.726;23.268;2022-11-15T09:18:46;95648.22;;;5.89;100.00
22647;BME280;11490;42.726;23.268;2022-11-15T09:21:12;95628.69;;;5.90;100.00
22647;BME280;11490;42.726;23.268;2022-11-15T09:23:38;95623.44;;;6.03;100.00
22647;BME280;11490;42.726;23.268;2022-11-15T09:26:04;95635.69;;;6.04;100.00
22647;BME280;11490;42.726;23.268;2022-11-15T09:28:31;95605.94;;;6.02;100.00
22647;BME280;11490;42.726;23.268;2022-11-15T09:30:58;95644.13;;;6.40;100.00
22647;BME280;11490;42.726;23.268;2022-11-15T09:33:24;95605.94;;;6.02;100.00
22647;BME280;11490;42.726;23.268;2022-11-15T09:35:49;95616.72;;;6.07;100.00
22647;BME280;11490;42.726;23.268;2022-11-15T09:38:15;95623.88;;;6.13;100.00
22647;BME280;11490;42.726;23.268;2022-11-15T09:40:40;95603.50;;;6.20;100.00
22647;BME280;11490;42.726;23.268;2022-11-15T09:48:55;95606.41;;;6.45;100.00
22647;BME280;11490;42.726;23.268;2022-11-15T09:51:26;95634.34;;;6.47;100.00
22647;BME280;11490;42.726;23.268;2022-11-15T09:56:26;95567.63;;;5.98;100.00
22647;BME280;11490;42.726;23.268;2022-11-15T09:59:03;95617.19;;;6.37;100.00
22647;BME280;11490;42.726;23.268;2022-11-15T10:04:22;95611.75;;;6.78;100.00
22647;BME280;11490;42.726;23.268;2022-11-15T10:07:02;95581.53;;;6.33;100.00
22647;BME280;11490;42.726;23.268;2022-11-15T10:09:54;95560.94;;;6.28;100.00
22647;BME280;11490;42.726;23.268;2022-11-15T10:12:23;95567.69;;;6.37;100.00
22647;BME280;11490;42.726;23.268;2022-11-15T10:14:50;95601.34;;;6.70;100.00
22647;BME280;11490;42.726;23.268;2022-11-15T10:22:54;95588.47;;;7.00;100.00
22647;BME280;11490;42.726;23.268;2022-11-15T10:25:23;95576.44;;;7.10;100.00
22647;BME280;11490;42.726;23.268;2022-11-15T10:28:13;95573.28;;;7.46;100.00
22647;BME280;11490;42.726;23.268;2022-11-15T10:30:44;95577.00;;;7.25;98.11
22647;BME280;11490;42.726;23.268;2022-11-15T10:33:25;95555.72;;;7.45;99.67
22647;BME280;11490;42.726;23.268;2022-11-15T10:38:51;95564.56;;;7.77;97.55
22647;BME280;11490;42.726;23.268;2022-11-15T10:43:42;95533.44;;;7.97;95.73
22647;BME280;11490;42.726;23.268;2022-11-15T10:46:35;95555.22;;;8.13;95.70
22647;BME280;11490;42.726;23.268;2022-11-15T10:51:49;95534.28;;;8.23;95.14
22647;BME280;11490;42.726;23.268;2022-11-15T10:54:39;95538.84;;;8.47;94.97
22647;BME280;11490;42.726;23.268;2022-11-15T10:57:33;95533.00;;;8.63;93.04
22647;BME280;11490;42.726;23.268;2022-11-15T11:00:06;95510.38;;;8.23;92.58
22647;BME280;11490;42.726;23.268;2022-11-15T11:02:36;95511.91;;;8.37;92.14
22647;BME280;11490;42.726;23.268;2022-11-15T11:05:24;95522.91;;;8.47;92.73
22647;BME280;11490;42.726;23.268;2022-11-15T11:10:54;95512.03;;;8.73;92.25
22647;BME280;11490;42.726;23.268;2022-11-15T11:13:25;95513.56;;;8.63;92.53
22647;BME280;11490;42.726;23.268;2022-11-15T11:16:19;95486.09;;;8.44;92.90
22647;BME280;11490;42.726;23.268;2022-11-15T11:24:10;95484.09;;;8.64;92.50
22647;BME280;11490;42.726;23.268;2022-11-15T11:37:53;95418.34;;;8.53;92.00
22647;BME280;11490;42.726;23.268;2022-11-15T11:40:41;95441.59;;;8.82;91.92
22647;BME280;11490;42.726;23.268;2022-11-15T11:48:47;95402.56;;;8.58;91.88
22647;BME280;11490;42.726;23.268;2022-11-15T11:53:48;95384.81;;;8.34;93.28
22647;BME280;11490;42.726;23.268;2022-11-15T11:56:23;95413.50;;;8.68;92.60
22647;BME280;11490;42.726;23.268;2022-11-15T11:58:53;95435.06;;;8.78;91.86
22647;BME280;11490;42.726;23.268;2022-11-15T12:01:30;95375.75;;;8.41;92.79
22647;BME280;11490;42.726;23.268;2022-11-15T12:04:03;95424.28;;;8.73;92.82
22647;BME280;11490;42.726;23.268;2022-11-15T12:09:15;95368.56;;;8.60;92.06
22647;BME280;11490;42.726;23.268;2022-11-15T12:14:52;95403.91;;;8.85;91.98
22647;BME280;11490;42.726;23.268;2022-11-15T12:17:24;95388.44;;;8.76;92.23
22647;BME280;11490;42.726;23.268;2022-11-15T12:19:52;95381.06;;;8.78;92.23
22647;BME280;11490;42.726;23.268;2022-11-15T12:22:21;95398.34;;;8.87;91.88
22647;BME280;11490;42.726;23.268;2022-11-15T12:24:53;95349.00;;;8.55;92.36
22647;BME280;11490;42.726;23.268;2022-11-15T12:27:44;95387.50;;;8.88;92.46
22647;BME280;11490;42.726;23.268;2022-11-15T12:30:17;95342.72;;;8.67;92.51
22647;BME280;11490;42.726;23.268;2022-11-15T12:32:58;95377.81;;;8.76;92.72
22647;BME280;11490;42.726;23.268;2022-11-15T12:35:41;95363.88;;;8.80;92.61
22647;BME280;11490;42.726;23.268;2022-11-15T12:38:11;95368.13;;;9.00;92.21
22647;BME280;11490;42.726;23.268;2022-11-15T12:40:39;95338.16;;;8.74;92.31
22647;BME280;11490;42.726;23.268;2022-11-15T12:46:02;95344.06;;;8.95;92.18
22647;BME280;11490;42.726;23.268;2022-11-15T12:51:01;95327.88;;;8.78;91.93
22647;BME280;11490;42.726;23.268;2022-11-15T12:53:30;95366.44;;;9.05;91.65
22647;BME280;11490;42.726;23.268;2022-11-15T12:58:53;95353.47;;;9.09;91.60
22647;BME280;11490;42.726;23.268;2022-11-15T13:11:56;95290.75;;;8.71;92.60
22647;BME280;11490;42.726;23.268;2022-11-15T13:28:11;95275.41;;;8.55;93.37
22647;BME280;11490;42.726;23.268;2022-11-15T13:30:37;95294.50;;;8.82;92.94
22647;BME280;11490;42.726;23.268;2022-11-15T13:33:09;95279.88;;;8.73;92.80
22647;BME280;11490;42.726;23.268;2022-11-15T13:35:39;95270.63;;;8.75;92.83
22647;BME280;11490;42.726;23.268;2022-11-15T13:38:05;95321.78;;;9.07;92.87
22647;BME280;11490;42.726;23.268;2022-11-15T13:40:36;95277.13;;;8.79;92.85
22647;BME280;11490;42.726;23.268;2022-11-15T13:49:09;95250.34;;;8.63;92.45
22647;BME280;11490;42.726;23.268;2022-11-15T13:51:47;95264.59;;;8.68;92.61
22647;BME280;11490;42.726;23.268;2022-11-15T13:54:33;95284.09;;;8.80;93.44
22647;BME280;11490;42.726;23.268;2022-11-15T13:59:33;95312.84;;;9.02;93.25
22647;BME280;11490;42.726;23.268;2022-11-15T14:02:16;95292.19;;;8.85;93.40
22647;BME280;11490;42.726;23.268;2022-11-15T14:05:21;95304.03;;;8.90;93.17
22647;BME280;11490;42.726;23.268;2022-11-15T14:10:44;95261.81;;;8.63;92.89
22647;BME280;11490;42.726;23.268;2022-11-15T14:13:30;95298.69;;;8.90;93.17
22647;BME280;11490;42.726;23.268;2022-11-15T14:16:20;95285.25;;;8.84;93.08
22647;BME280;11490;42.726;23.268;2022-11-15T14:18:50;95297.47;;;9.04;93.01
22647;BME280;11490;42.726;23.268;2022-11-15T14:21:17;95288.06;;;8.90;92.55
22647;BME280;11490;42.726;23.268;2022-11-15T14:23:43;95292.19;;;8.85;92.36
22647;BME280;11490;42.726;23.268;2022-11-15T14:26:29;95260.56;;;8.66;93.03
22647;BME280;11490;42.726;23.268;2022-11-15T14:28:55;95275.38;;;8.73;93.14
22647;BME280;11490;42.726;23.268;2022-11-15T14:31:21;95259.38;;;8.62;93.07
22647;BME280;11490;42.726;23.268;2022-11-15T14:33:47;95285.72;;;8.81;92.75
22647;BME280;11490;42.726;23.268;2022-11-15T14:36:18;95283.19;;;8.68;92.91
22647;BME280;11490;42.726;23.268;2022-11-15T14:38:44;95302.84;;;8.85;92.71
22647;BME280;11490;42.726;23.268;2022-11-15T14:41:21;95292.47;;;8.66;93.00
22647;BME280;11490;42.726;23.268;2022-11-15T14:43:48;95292.22;;;8.67;92.92
22647;BME280;11490;42.726;23.268;2022-11-15T14:46:13;95294.94;;;8.61;93.03
22647;BME280;11490;42.726;23.268;2022-11-15T14:48:39;95265.75;;;8.42;92.83
22647;BME280;11490;42.726;23.268;2022-11-15T14:51:15;95279.38;;;8.28;93.31
22647;BME280;11490;42.726;23.268;2022-11-15T14:53:42;95297.84;;;8.41;93.84
22647;BME280;11490;42.726;23.268;2022-11-15T14:56:08;95298.72;;;8.53;93.76
22647;BME280;11490;42.726;23.268;2022-11-15T14:58:43;95208.81;;;7.77;94.47
22647;BME280;11490;42.726;23.268;2022-11-15T15:01:24;95282.59;;;8.30;94.38
22647;BME280;11490;42.726;23.268;2022-11-15T15:03:50;95299.19;;;8.32;93.79
22647;BME280;11490;42.726;23.268;2022-11-15T15:06:23;95288.81;;;8.24;94.82
22647;BME280;11490;42.726;23.268;2022-11-15T15:08:49;95263.72;;;8.01;95.03
22647;BME280;11490;42.726;23.268;2022-11-15T15:11:28;95268.00;;;8.02;95.53
22647;BME280;11490;42.726;23.268;2022-11-15T15:13:54;95282.16;;;8.15;95.13
22647;BME280;11490;42.726;23.268;2022-11-15T15:16:25;95260.94;;;7.90;95.51
22647;BME280;11490;42.726;23.268;2022-11-15T15:18:50;95251.59;;;7.87;95.15
22647;BME280;11490;42.726;23.268;2022-11-15T15:21:24;95238.97;;;7.83;94.85
22647;BME280;11490;42.726;23.268;2022-11-15T15:23:51;95281.56;;;7.94;94.28
22647;BME280;11490;42.726;23.268;2022-11-15T15:26:17;95259.19;;;7.84;95.41
22647;BME280;11490;42.726;23.268;2022-11-15T15:28:42;95268.34;;;7.88;96.61